Time;durP1;ratioP1;P1;durP2;ratioP2;P2;SDS_P1;SDS_P2;PMS_P1;PMS_P2;Temp;Humidity;BMP_temperature;BMP_pressure;BME280_temperature;BME280_humidity;BME280_pressure;Samples;Min_cycle;Max_cycle;Signal;HPM_P1;HPM_P2
2022/08/06 00:01:51;;;;;;;2.42;0.70;;;16.40;99.90;;;;;;5079202;28;20028;-57
2022/08/06 00:04:18;;;;;;;7.00;1.05;;;16.30;99.90;;;;;;5079271;28;20295;-57
2022/08/06 00:06:44;;;;;;;4.03;1.00;;;16.30;99.90;;;;;;5079283;28;20392;-57
2022/08/06 00:09:11;;;;;;;5.15;0.90;;;16.30;99.90;;;;;;5078831;28;20036;-57
2022/08/06 00:11:38;;;;;;;3.15;0.88;;;16.30;99.90;;;;;;5079368;28;20036;-57
2022/08/06 00:14:04;;;;;;;2.50;1.00;;;16.30;99.90;;;;;;5078689;28;20434;-57
2022/08/06 00:16:30;;;;;;;3.90;0.93;;;16.20;99.90;;;;;;5078784;28;20275;-57
2022/08/06 00:18:56;;;;;;;3.35;0.77;;;16.20;99.90;;;;;;5078709;28;20046;-58
2022/08/06 00:21:22;;;;;;;3.00;1.00;;;16.30;99.90;;;;;;5078603;28;20384;-57
2022/08/06 00:23:48;;;;;;;2.83;0.90;;;16.30;99.90;;;;;;5078659;28;20025;-57
2022/08/06 00:26:13;;;;;;;3.92;0.90;;;16.30;99.90;;;;;;5077893;28;20065;-58
2022/08/06 00:28:39;;;;;;;3.03;0.80;;;16.00;99.90;;;;;;5078505;28;20061;-58
2022/08/06 00:31:07;;;;;;;3.58;0.75;;;16.00;99.90;;;;;;5077867;28;20036;-57
2022/08/06 00:33:33;;;;;;;3.58;0.93;;;16.00;99.90;;;;;;5078433;28;20068;-57
2022/08/06 00:35:59;;;;;;;6.00;1.00;;;16.10;99.90;;;;;;5078534;28;20086;-58
2022/08/06 00:38:25;;;;;;;3.97;1.13;;;16.20;99.90;;;;;;5078364;28;20029;-58
2022/08/06 00:40:52;;;;;;;3.28;0.80;;;16.20;99.90;;;;;;5078434;28;20095;-58
2022/08/06 00:43:18;;;;;;;3.28;0.85;;;16.00;99.90;;;;;;5078562;28;20111;-58
2022/08/06 00:45:43;;;;;;;3.15;0.80;;;15.80;99.90;;;;;;5077555;28;20105;-58
2022/08/06 00:48:09;;;;;;;5.10;1.20;;;15.70;99.90;;;;;;5078117;28;20155;-58
2022/08/06 00:50:35;;;;;;;2.47;0.90;;;15.70;99.90;;;;;;5077486;28;20044;-58
2022/08/06 00:53:03;;;;;;;2.72;0.68;;;15.70;99.90;;;;;;5078381;28;20113;-58
2022/08/06 00:55:29;;;;;;;3.95;0.90;;;15.60;99.90;;;;;;5078785;28;20296;-58
2022/08/06 00:57:55;;;;;;;4.00;0.82;;;15.70;99.90;;;;;;5077674;28;20055;-58
2022/08/06 01:00:21;;;;;;;2.60;0.90;;;15.70;99.90;;;;;;5077952;28;20040;-58
2022/08/06 01:02:46;;;;;;;3.03;1.00;;;15.70;99.90;;;;;;5078279;28;20067;-58
2022/08/06 01:05:12;;;;;;;1.80;0.55;;;15.80;99.90;;;;;;5077846;28;20037;-58
2022/08/06 01:07:38;;;;;;;2.03;0.80;;;15.70;99.90;;;;;;5077417;28;20024;-58
2022/08/06 01:10:04;;;;;;;5.15;0.88;;;15.60;99.90;;;;;;5077654;28;20520;-58
2022/08/06 01:12:30;;;;;;;2.80;0.80;;;15.60;99.90;;;;;;5078203;28;20043;-58
2022/08/06 01:14:56;;;;;;;5.30;1.08;;;15.60;99.90;;;;;;5077746;28;20048;-58
2022/08/06 01:17:35;;;;;;;2.33;1.20;;;15.60;99.90;;;;;;5077616;28;20059;-58
2022/08/06 01:20:19;;;;;;;5.38;1.00;;;15.70;99.90;;;;;;5077640;28;20029;-57
2022/08/06 01:22:53;;;;;;;4.05;1.13;;;15.60;99.90;;;;;;5077915;28;20039;-58
2022/08/06 01:25:22;;;;;;;2.28;0.90;;;15.50;99.90;;;;;;5077549;28;20060;-58
2022/08/06 01:28:02;;;;;;;4.38;0.80;;;15.40;99.90;;;;;;5077448;28;20024;-59
2022/08/06 01:30:33;;;;;;;4.15;0.95;;;15.40;99.90;;;;;;5077536;28;20056;-58
2022/08/06 01:33:24;;;;;;;8.02;1.10;;;15.30;99.90;;;;;;5078426;28;20442;-58
2022/08/06 01:35:56;;;;;;;2.45;0.70;;;15.30;99.90;;;;;;5077394;28;20036;-58
2022/08/06 01:38:56;;;;;;;3.95;1.27;;;15.30;99.90;;;;;;5077185;28;20056;-58
2022/08/06 01:41:41;;;;;;;4.45;0.90;;;15.20;99.90;;;;;;5076419;28;20052;-58
2022/08/06 01:44:20;;;;;;;3.38;0.90;;;15.20;99.90;;;;;;5077105;28;20051;-58
2022/08/06 01:46:57;;;;;;;3.15;1.00;;;15.20;99.90;;;;;;5077168;28;20103;-58
2022/08/06 01:49:29;;;;;;;4.68;0.95;;;15.10;99.90;;;;;;5077201;28;20288;-58
2022/08/06 01:51:57;;;;;;;;;;;15.00;99.90;;;;;;5076634;28;20036;-58
2022/08/06 01:54:24;;;;;;;2.72;0.88;;;15.00;99.90;;;;;;5076332;28;19904;-58
2022/08/06 01:56:53;;;;;;;3.90;1.08;;;15.00;99.90;;;;;;5076276;28;20269;-58
2022/08/06 01:59:22;;;;;;;3.90;1.10;;;15.00;99.90;;;;;;5077284;28;20399;-59
2022/08/06 02:01:53;;;;;;;5.93;1.20;;;15.00;99.90;;;;;;5076876;28;20119;-58
2022/08/06 02:04:23;;;;;;;3.25;1.13;;;15.00;99.90;;;;;;5076985;28;20426;-58
2022/08/06 02:06:50;;;;;;;4.25;0.80;;;14.90;99.90;;;;;;5076910;28;20025;-58
2022/08/06 02:09:19;;;;;;;4.40;1.10;;;15.00;99.90;;;;;;5077085;28;20495;-58
2022/08/06 02:12:06;;;;;;;3.63;1.10;;;14.90;99.90;;;;;;5076745;28;20028;-58
2022/08/06 02:14:36;;;;;;;2.75;0.82;;;15.00;99.90;;;;;;5076770;28;20041;-58
2022/08/06 02:17:04;;;;;;;3.40;1.00;;;14.90;99.90;;;;;;5076684;28;20120;-58
2022/08/06 02:19:32;;;;;;;3.97;1.05;;;14.90;99.90;;;;;;5075869;28;20097;-58
2022/08/06 02:22:01;;;;;;;3.70;1.10;;;14.90;99.90;;;;;;5075842;28;20090;-58
2022/08/06 02:24:29;;;;;;;3.20;1.05;;;15.10;99.90;;;;;;5076575;28;20107;-58
2022/08/06 02:26:58;;;;;;;2.50;0.90;;;15.10;99.90;;;;;;5076802;28;20354;-58
2022/08/06 02:29:25;;;;;;;3.58;0.93;;;15.10;99.90;;;;;;5076599;28;20319;-58
2022/08/06 02:31:51;;;;;;;2.83;1.17;;;15.10;99.90;;;;;;5076671;28;20029;-58
2022/08/06 02:34:21;;;;;;;2.78;1.10;;;15.20;99.90;;;;;;5076450;28;20032;-58
2022/08/06 02:36:58;;;;;;;3.63;0.95;;;15.20;99.90;;;;;;5076582;28;20025;-58
2022/08/06 02:39:35;;;;;;;1.90;0.98;;;15.20;99.90;;;;;;5076831;28;20419;-57
2022/08/06 02:42:33;;;;;;;2.65;1.10;;;15.20;99.90;;;;;;5076534;28;20086;-58
2022/08/06 02:45:07;;;;;;;2.05;0.85;;;15.00;99.90;;;;;;5075565;28;20037;-58
2022/08/06 02:47:53;;;;;;;4.53;1.10;;;14.90;99.90;;;;;;5076564;28;20032;-58
2022/08/06 02:50:24;;;;;;;4.35;1.27;;;14.90;99.90;;;;;;5076470;28;20025;-58
2022/08/06 02:52:59;;;;;;;2.35;0.80;;;14.90;99.90;;;;;;5076976;28;20036;-58
2022/08/06 02:55:32;;;;;;;1.83;0.90;;;14.90;99.90;;;;;;5076385;28;20048;-58
2022/08/06 02:58:07;;;;;;;3.70;1.10;;;14.80;99.90;;;;;;5076399;28;20434;-58
2022/08/06 03:00:38;;;;;;;3.78;1.27;;;14.90;99.90;;;;;;5076202;28;20469;-58
2022/08/06 03:03:07;;;;;;;3.25;1.00;;;14.80;99.90;;;;;;5076753;28;20425;-58
2022/08/06 03:05:35;;;;;;;4.55;0.98;;;14.80;99.90;;;;;;5076232;28;20016;-58
2022/08/06 03:08:05;;;;;;;3.42;1.02;;;14.70;99.90;;;;;;5076143;28;20098;-58
2022/08/06 03:10:33;;;;;;;2.53;0.90;;;14.80;99.90;;;;;;5076449;28;20032;-58
2022/08/06 03:13:00;;;;;;;3.40;1.00;;;14.70;99.90;;;;;;5076079;28;20040;-59
2022/08/06 03:15:29;;;;;;;4.95;1.17;;;14.60;99.90;;;;;;5058849;28;20033;-58
2022/08/06 03:17:58;;;;;;;5.22;1.48;;;14.50;99.90;;;;;;5076056;28;20043;-58
2022/08/06 03:20:26;;;;;;;3.20;1.08;;;14.60;99.90;;;;;;5075909;28;20041;-58
2022/08/06 03:22:55;;;;;;;3.70;1.27;;;14.60;99.90;;;;;;5075352;28;20059;-58
2022/08/06 03:25:22;;;;;;;3.15;1.08;;;14.60;99.90;;;;;;5076029;28;20400;-58
2022/08/06 03:27:49;;;;;;;5.05;1.10;;;14.60;99.90;;;;;;5076011;28;20028;-58
2022/08/06 03:30:17;;;;;;;3.40;1.05;;;14.40;99.90;;;;;;5077308;28;20040;-58
2022/08/06 03:32:45;;;;;;;3.25;1.17;;;14.50;99.90;;;;;;5079766;28;20384;-58
2022/08/06 03:35:11;;;;;;;3.50;1.05;;;14.60;99.90;;;;;;5079634;28;20055;-58
2022/08/06 03:37:38;;;;;;;3.33;1.00;;;14.60;99.90;;;;;;5079626;28;20311;-58
2022/08/06 03:40:05;;;;;;;2.90;1.17;;;14.70;99.90;;;;;;5078737;28;20037;-58
2022/08/06 03:42:31;;;;;;;4.43;1.42;;;14.80;99.90;;;;;;5079533;28;20028;-58
2022/08/06 03:44:58;;;;;;;3.35;0.98;;;14.80;99.90;;;;;;5079376;28;20051;-57
2022/08/06 03:47:31;;;;;;;3.10;1.08;;;14.70;99.90;;;;;;5079498;28;20299;-57
2022/08/06 03:50:04;;;;;;;2.25;0.95;;;14.60;99.90;;;;;;5079252;28;20040;-57
2022/08/06 03:52:31;;;;;;;;;;;14.50;99.90;;;;;;5080193;28;20288;-57
2022/08/06 03:55:02;;;;;;;3.13;1.10;;;14.60;99.90;;;;;;5079194;28;19915;-57
2022/08/06 03:57:37;;;;;;;4.43;1.30;;;14.60;99.90;;;;;;5078420;28;20438;-57
2022/08/06 04:00:04;;;;;;;3.72;1.20;;;14.70;99.90;;;;;;5079158;28;20415;-57
2022/08/06 04:02:49;;;;;;;4.53;1.30;;;14.70;99.90;;;;;;5079144;28;20036;-57
2022/08/06 04:05:18;;;;;;;6.18;1.27;;;14.60;99.90;;;;;;5079031;28;20094;-57
2022/08/06 04:07:46;;;;;;;5.22;1.13;;;14.60;99.90;;;;;;5078854;28;20059;-57
2022/08/06 04:10:13;;;;;;;2.83;1.10;;;14.50;99.90;;;;;;5078892;28;20300;-58
2022/08/06 04:12:42;;;;;;;3.70;1.25;;;14.50;99.90;;;;;;5078986;28;20031;-57
2022/08/06 04:15:09;;;;;;;3.72;1.40;;;14.40;99.90;;;;;;5078799;28;20300;-58
2022/08/06 04:17:38;;;;;;;3.80;1.20;;;14.30;99.90;;;;;;5078756;28;20043;-58
2022/08/06 04:20:06;;;;;;;4.70;1.45;;;14.30;99.90;;;;;;5078602;28;20145;-58
2022/08/06 04:22:33;;;;;;;3.90;1.30;;;14.20;99.90;;;;;;5078519;28;20085;-58
2022/08/06 04:24:59;;;;;;;4.05;1.23;;;14.30;99.90;;;;;;5077885;28;20384;-58
2022/08/06 04:27:27;;;;;;;3.20;1.40;;;14.20;99.90;;;;;;5078594;28;20028;-58
2022/08/06 04:29:55;;;;;;;4.07;1.23;;;14.20;99.90;;;;;;5078320;28;20029;-58
2022/08/06 04:32:23;;;;;;;2.15;1.25;;;14.30;99.90;;;;;;5078406;28;20123;-58
2022/08/06 04:34:51;;;;;;;3.20;1.30;;;14.20;99.90;;;;;;5078541;28;20393;-58
2022/08/06 04:37:17;;;;;;;4.22;1.20;;;14.30;99.90;;;;;;5078980;28;20028;-58
2022/08/06 04:39:44;;;;;;;2.97;1.02;;;14.50;99.90;;;;;;5077411;28;20041;-58
2022/08/06 04:42:10;;;;;;;3.85;1.20;;;14.50;99.90;;;;;;5078102;28;20037;-58
2022/08/06 04:44:37;;;;;;;5.18;1.25;;;14.60;99.90;;;;;;5077496;28;20282;-59
2022/08/06 04:47:07;;;;;;;5.80;1.38;;;14.60;99.90;;;;;;5078569;28;20361;-58
2022/08/06 04:49:33;;;;;;;4.57;1.20;;;14.70;99.90;;;;;;5078498;28;20367;-58
2022/08/06 04:51:59;;;;;;;3.97;1.20;;;14.70;99.90;;;;;;5078163;28;20028;-58
2022/08/06 04:54:25;;;;;;;4.47;1.33;;;14.70;99.90;;;;;;5078035;28;20086;-58
2022/08/06 04:56:50;;;;;;;4.57;1.50;;;14.70;99.90;;;;;;5077825;28;20024;-58
2022/08/06 04:59:17;;;;;;;2.92;1.30;;;14.70;99.90;;;;;;5078173;28;20024;-58
2022/08/06 05:01:43;;;;;;;5.07;1.60;;;14.80;99.90;;;;;;5077957;28;20044;-58
2022/08/06 05:04:08;;;;;;;2.70;1.35;;;14.90;99.90;;;;;;5078140;28;20025;-57
2022/08/06 05:06:49;;;;;;;6.07;1.50;;;15.00;99.90;;;;;;5078434;28;20046;-58
2022/08/06 05:09:22;;;;;;;4.60;1.83;;;15.00;99.90;;;;;;5077813;28;20029;-58
2022/08/06 05:11:54;;;;;;;8.98;1.77;;;14.80;99.90;;;;;;5077610;28;20044;-58
2022/08/06 05:14:27;;;;;;;4.15;1.48;;;14.80;99.90;;;;;;5076916;28;20024;-58
2022/08/06 05:16:54;;;;;;;4.35;1.60;;;14.80;99.90;;;;;;5077763;28;20110;-58
2022/08/06 05:19:26;;;;;;;4.68;1.83;;;14.90;99.90;;;;;;5077596;28;20016;-58
2022/08/06 05:21:55;;;;;;;6.75;1.77;;;14.90;99.90;;;;;;5077801;28;20032;-58
2022/08/06 05:24:21;;;;;;;5.55;1.55;;;14.90;99.90;;;;;;5077983;28;20426;-58
2022/08/06 05:26:48;;;;;;;3.42;1.52;;;15.00;99.90;;;;;;5078219;28;20384;-57
2022/08/06 05:29:19;;;;;;;6.80;1.70;;;15.10;99.90;;;;;;5077280;28;20297;-58
2022/08/06 05:31:44;;;;;;;4.22;1.80;;;15.10;99.90;;;;;;5077808;28;20311;-58
2022/08/06 05:34:11;;;;;;;5.45;1.50;;;14.80;99.90;;;;;;5076473;28;20040;-59
2022/08/06 05:36:38;;;;;;;4.03;1.30;;;14.80;99.90;;;;;;5077325;28;20059;-58
2022/08/06 05:39:04;;;;;;;6.45;1.60;;;15.00;99.90;;;;;;5077168;28;20040;-58
2022/08/06 05:41:30;;;;;;;7.43;1.63;;;14.90;99.90;;;;;;5077038;28;20025;-58
2022/08/06 05:43:58;;;;;;;5.30;1.75;;;14.80;99.90;;;;;;5077519;28;20037;-58
2022/08/06 05:46:26;;;;;;;4.43;1.50;;;14.70;99.90;;;;;;5076912;28;20033;-58
2022/08/06 05:48:54;;;;;;;5.57;1.63;;;14.90;99.90;;;;;;5076193;28;20028;-58
2022/08/06 05:51:46;;;;;;;4.70;1.60;;;14.90;99.90;;;;;;5076867;28;20044;-58
2022/08/06 05:54:18;;;;;;;5.32;1.65;;;15.00;99.90;;;;;;5076016;28;20301;-59
2022/08/06 05:56:50;;;;;;;8.80;2.08;;;15.00;99.90;;;;;;5076774;28;20040;-58
2022/08/06 05:59:24;;;;;;;4.50;1.77;;;15.20;99.90;;;;;;5076912;28;20039;-58
2022/08/06 06:01:50;;;;;;;4.35;1.70;;;15.40;99.90;;;;;;5076905;28;20029;-58
2022/08/06 06:04:18;;;;;;;8.38;2.03;;;15.60;99.90;;;;;;5076778;28;20115;-58
2022/08/06 06:06:44;;;;;;;5.72;1.58;;;15.70;99.90;;;;;;5076895;28;20121;-58
2022/08/06 06:09:13;;;;;;;5.00;1.50;;;15.80;99.90;;;;;;5077067;28;20067;-58
2022/08/06 06:11:40;;;;;;;2.63;1.45;;;15.90;99.90;;;;;;5076647;28;20044;-59
2022/08/06 06:14:30;;;;;;;4.45;1.30;;;16.10;99.90;;;;;;5076834;28;20025;-58
2022/08/06 06:17:05;;;;;;;7.22;1.60;;;16.20;99.90;;;;;;5076828;28;20024;-59
2022/08/06 06:19:53;;;;;;;4.95;1.67;;;16.30;99.90;;;;;;5076721;28;20062;-59
2022/08/06 06:22:28;;;;;;;5.60;1.90;;;16.50;99.90;;;;;;5076806;28;20388;-60
2022/08/06 06:24:59;;;;;;;4.43;1.92;;;16.70;99.90;;;;;;5075877;28;20111;-60
2022/08/06 06:27:38;;;;;;;5.97;1.90;;;16.70;99.90;;;;;;5076684;28;20106;-59
2022/08/06 06:30:10;;;;;;;6.55;1.83;;;16.90;99.90;;;;;;5076752;28;20032;-58
2022/08/06 06:32:57;;;;;;;5.50;1.90;;;17.00;99.90;;;;;;5076636;28;20036;-59
2022/08/06 06:35:39;;;;;;;5.05;1.95;;;17.20;99.90;;;;;;5059054;28;20039;-59
2022/08/06 06:38:26;;;;;;;5.40;1.85;;;17.20;99.90;;;;;;5076741;28;20028;-60
2022/08/06 06:41:29;;;;;;;5.15;1.58;;;17.30;99.90;;;;;;5076474;28;20028;-59
2022/08/06 06:44:00;;;;;;;5.07;1.52;;;17.40;99.90;;;;;;5076511;28;20028;-59
2022/08/06 06:46:41;;;;;;;4.55;2.00;;;17.60;99.90;;;;;;5076562;28;20343;-60
2022/08/06 06:49:24;;;;;;;6.60;1.88;;;17.70;99.90;;;;;;5076787;28;20116;-60
2022/08/06 06:51:56;;;;;;;4.43;1.70;;;17.80;99.90;;;;;;5076010;28;20384;-59
2022/08/06 06:54:39;;;;;;;4.60;1.60;;;18.00;99.90;;;;;;5075771;28;20020;-60
2022/08/06 06:57:09;;;;;;;6.25;2.03;;;18.10;99.90;;;;;;5076663;28;20040;-59
2022/08/06 06:59:39;;;;;;;5.10;2.00;;;18.20;99.90;;;;;;5076535;28;20032;-59
2022/08/06 07:02:06;;;;;;;3.72;1.80;;;18.30;99.90;;;;;;5076400;28;20056;-59
2022/08/06 07:04:35;;;;;;;10.15;6.20;;;18.40;99.90;;;;;;5076677;28;20120;-59
2022/08/06 07:07:03;;;;;;;2.60;0.60;;;18.30;99.90;;;;;;5080841;28;20043;-60
2022/08/06 07:09:33;;;;;;;2.40;0.70;;;18.50;99.90;;;;;;5080248;28;20044;-59
2022/08/06 07:12:00;;;;;;;2.35;0.73;;;18.60;99.90;;;;;;5079361;28;20025;-59
2022/08/06 07:14:28;;;;;;;5.20;0.77;;;18.70;99.90;;;;;;5080619;28;20035;-59
2022/08/06 07:16:56;;;;;;;2.45;0.85;;;18.90;99.90;;;;;;5080192;28;20084;-59
2022/08/06 07:19:24;;;;;;;3.85;0.70;;;19.00;99.90;;;;;;5080370;28;20052;-59
2022/08/06 07:21:51;;;;;;;2.88;0.77;;;19.00;99.90;;;;;;5079926;28;20135;-60
2022/08/06 07:24:17;;;;;;;3.70;0.90;;;19.10;99.90;;;;;;5080233;28;20523;-59
2022/08/06 07:26:48;;;;;;;2.47;0.63;;;19.20;99.90;;;;;;5079393;28;20036;-58
2022/08/06 07:29:16;;;;;;;2.55;0.73;;;19.20;99.90;;;;;;5079966;28;20028;-59
2022/08/06 07:31:43;;;;;;;2.97;0.50;;;19.30;99.90;;;;;;5079622;28;20041;-59
2022/08/06 07:34:09;;;;;;;2.03;0.50;;;19.40;99.90;;;;;;5079749;28;20102;-59
2022/08/06 07:36:46;;;;;;;1.27;0.50;;;19.30;99.90;;;;;;5079823;28;20090;-60
2022/08/06 07:39:21;;;;;;;2.55;0.40;;;19.40;99.90;;;;;;5079915;28;20098;-60
2022/08/06 07:41:49;;;;;;;1.75;0.50;;;19.40;99.90;;;;;;5078959;28;20406;-59
2022/08/06 07:44:15;;;;;;;2.50;0.68;;;19.40;99.90;;;;;;5079853;28;20036;-60
2022/08/06 07:46:48;;;;;;;3.10;0.45;;;19.50;99.90;;;;;;5079607;28;20043;-59
2022/08/06 07:49:16;;;;;;;2.55;0.68;;;19.50;99.90;;;;;;5078996;28;20032;-59
2022/08/06 07:51:44;;;;;;;3.30;0.63;;;19.40;99.90;;;;;;5078701;28;20024;-59
2022/08/06 07:54:10;;;;;;;1.95;0.40;;;19.50;99.90;;;;;;5079444;28;20071;-59
2022/08/06 07:56:40;;;;;;;2.58;0.52;;;19.60;99.90;;;;;;5079398;28;20040;-59
2022/08/06 07:59:08;;;;;;;0.77;0.30;;;19.60;99.90;;;;;;5079328;28;20076;-59
2022/08/06 08:01:35;;;;;;;1.98;0.40;;;19.70;99.90;;;;;;5079321;28;20186;-60
2022/08/06 08:06:47;;;;;;;2.55;0.50;;;19.60;99.90;;;;;;5079184;28;20035;-59
2022/08/06 08:09:16;;;;;;;1.40;0.45;;;19.70;99.90;;;;;;5079397;28;20021;-59
2022/08/06 08:11:45;;;;;;;1.23;0.35;;;19.70;99.90;;;;;;5079036;28;20036;-59
2022/08/06 08:14:13;;;;;;;2.38;0.40;;;19.70;99.90;;;;;;5078351;28;20051;-59
2022/08/06 08:16:43;;;;;;;2.40;0.68;;;19.80;99.90;;;;;;5077876;28;20037;-59
2022/08/06 08:19:27;;;;;;;1.65;0.30;;;19.80;99.90;;;;;;5079237;28;20036;-60
2022/08/06 08:21:56;;;;;;;1.13;0.40;;;19.90;99.90;;;;;;5078083;28;20072;-59
2022/08/06 08:24:23;;;;;;;2.53;0.40;;;20.00;99.90;;;;;;5078049;28;20111;-59
2022/08/06 08:26:49;;;;;;;1.65;0.40;;;20.10;99.90;;;;;;5078870;28;20296;-59
2022/08/06 08:29:15;;;;;;;2.25;0.35;;;20.10;99.90;;;;;;5078745;28;20025;-59
2022/08/06 08:31:41;;;;;;;2.75;0.50;;;20.10;99.90;;;;;;5078594;28;20041;-59
2022/08/06 08:34:07;;;;;;;0.75;0.40;;;20.10;99.90;;;;;;5078704;28;20042;-59
2022/08/06 08:36:33;;;;;;;2.80;0.30;;;19.90;99.90;;;;;;5077576;28;20024;-59
2022/08/06 08:39:01;;;;;;;1.83;0.50;;;20.20;99.90;;;;;;5078180;28;20032;-59
2022/08/06 08:41:49;;;;;;;1.35;0.30;;;20.30;99.90;;;;;;5077800;28;20354;-59
2022/08/06 08:44:22;;;;;;;0.98;0.47;;;20.20;99.90;;;;;;5078654;28;20039;-60
2022/08/06 08:46:49;;;;;;;2.05;0.30;;;20.20;99.90;;;;;;5078589;28;20049;-60
2022/08/06 08:49:36;;;;;;;3.35;0.40;;;20.30;99.90;;;;;;5078880;28;20339;-59
2022/08/06 08:52:03;;;;;;;1.63;0.35;;;20.10;99.90;;;;;;5078454;28;20415;-59
2022/08/06 08:54:33;;;;;;;1.60;0.30;;;20.20;99.90;;;;;;5078361;28;20020;-60
2022/08/06 08:57:01;;;;;;;2.15;0.40;;;20.20;99.90;;;;;;5078360;28;20024;-59
2022/08/06 08:59:27;;;;;;;1.98;0.50;;;20.30;99.90;;;;;;5078521;28;20556;-60
2022/08/06 09:01:53;;;;;;;1.73;0.50;;;20.40;99.90;;;;;;5078149;28;20064;-59
2022/08/06 09:04:19;;;;;;;0.77;0.40;;;20.60;99.90;;;;;;5078440;28;20025;-59
2022/08/06 09:06:45;;;;;;;1.00;0.45;;;20.70;99.90;;;;;;5060809;28;20036;-59
2022/08/06 09:09:11;;;;;;;3.58;0.63;;;20.80;99.90;;;;;;5078062;28;20098;-59
2022/08/06 09:11:39;;;;;;;3.05;0.40;;;20.60;99.90;;;;;;5078153;28;20029;-59
2022/08/06 09:14:07;;;;;;;1.33;0.35;;;20.70;99.90;;;;;;5078043;28;20402;-60
2022/08/06 09:16:34;;;;;;;0.98;0.40;;;20.80;99.90;;;;;;5077850;28;20036;-59
2022/08/06 09:19:00;;;;;;;1.17;0.38;;;21.10;99.90;;;;;;5077803;28;20096;-59
2022/08/06 09:21:28;;;;;;;0.45;0.35;;;21.20;99.90;;;;;;5077782;28;20033;-59
2022/08/06 09:23:54;;;;;;;1.20;0.43;;;21.10;99.90;;;;;;5077711;28;20040;-60
2022/08/06 09:26:20;;;;;;;1.88;0.40;;;21.10;99.90;;;;;;5077753;28;20039;-60
2022/08/06 09:28:46;;;;;;;1.23;0.40;;;21.30;99.90;;;;;;5076828;28;20113;-59
2022/08/06 09:31:15;;;;;;;3.33;0.20;;;21.60;99.90;;;;;;5077635;28;20039;-60
2022/08/06 09:33:52;;;;;;;2.92;0.40;;;21.80;99.90;;;;;;5077580;28;20039;-60
2022/08/06 09:36:18;;;;;;;5.30;0.32;;;22.10;99.90;;;;;;5077745;28;20040;-59
2022/08/06 09:38:49;;;;;;;2.40;0.40;;;22.10;99.90;;;;;;5077340;28;20300;-60
2022/08/06 09:41:17;;;;;;;1.27;0.30;;;22.00;99.90;;;;;;5076593;28;20025;-60
2022/08/06 09:43:45;;;;;;;1.27;0.30;;;21.90;99.90;;;;;;5077343;28;20028;-60
2022/08/06 09:46:11;;;;;;;2.45;0.40;;;21.60;99.90;;;;;;5076608;28;20047;-59
2022/08/06 09:48:37;;;;;;;2.85;0.30;;;21.50;99.90;;;;;;5077338;28;20379;-60
2022/08/06 09:51:03;;;;;;;1.27;0.30;;;21.60;99.90;;;;;;5077306;28;20171;-62
2022/08/06 09:53:29;;;;;;;1.40;0.35;;;21.80;99.90;;;;;;5077678;28;20300;-58
2022/08/06 09:55:56;;;;;;;2.17;0.38;;;21.50;99.90;;;;;;5077253;28;20038;-61
2022/08/06 09:58:37;;;;;;;0.90;0.25;;;21.80;99.90;;;;;;5076287;28;20052;-59
2022/08/06 10:01:20;;;;;;;2.35;0.40;;;22.00;99.90;;;;;;5077106;28;20049;-59
2022/08/06 10:03:47;;;;;;;0.70;0.30;;;22.30;99.90;;;;;;5077186;28;20028;-59
2022/08/06 10:06:21;;;;;;;0.88;0.25;;;22.30;99.90;;;;;;5077293;28;20095;-59
2022/08/06 10:08:49;;;;;;;1.30;0.28;;;22.20;99.90;;;;;;5077154;28;20444;-59
2022/08/06 10:11:32;;;;;;;6.93;0.60;;;22.30;99.90;;;;;;5077392;28;20028;-60
2022/08/06 10:13:58;;;;;;;2.38;0.40;;;22.20;99.90;;;;;;5077116;28;20191;-60
2022/08/06 10:16:26;;;;;;;1.38;0.40;;;22.00;99.90;;;;;;5076989;28;20104;-60
2022/08/06 10:18:53;;;;;;;0.85;0.25;;;21.90;99.90;;;;;;5077357;28;20036;-59
2022/08/06 10:21:22;;;;;;;1.02;0.28;;;22.00;99.90;;;;;;5076741;28;20111;-59
2022/08/06 10:23:59;;;;;;;1.77;0.47;;;22.00;99.90;;;;;;5076772;28;20132;-59
2022/08/06 10:26:27;;;;;;;3.67;0.43;;;22.20;99.90;;;;;;5076300;28;20032;-59
2022/08/06 10:28:54;;;;;;;1.42;0.45;;;22.30;99.90;;;;;;5076855;28;20312;-58
2022/08/06 10:31:21;;;;;;;1.92;0.38;;;22.50;99.90;;;;;;5077120;28;20404;-58
2022/08/06 10:33:51;;;;;;;1.60;0.40;;;22.90;99.90;;;;;;5077063;28;20074;-58
2022/08/06 10:36:22;;;;;;;0.95;0.30;;;23.10;99.90;;;;;;5076665;28;20103;-59
2022/08/06 10:38:50;;;;;;;0.43;0.22;;;22.80;99.90;;;;;;5077092;28;20047;-59
2022/08/06 10:41:17;;;;;;;0.60;0.28;;;23.00;99.90;;;;;;5079958;28;20410;-59
2022/08/06 10:43:43;;;;;;;1.20;0.30;;;23.40;99.90;;;;;;5080106;28;20048;-59
2022/08/06 10:46:12;;;;;;;1.38;0.28;;;23.60;99.90;;;;;;5080734;28;20028;-59
2022/08/06 10:48:41;;;;;;;3.20;0.40;;;24.00;99.90;;;;;;5081169;28;20029;-60
2022/08/06 10:51:08;;;;;;;2.22;0.70;;;24.20;99.90;;;;;;5081054;28;20118;-59
2022/08/06 10:53:36;;;;;;;2.15;0.30;;;24.30;99.90;;;;;;5080666;28;20074;-59
2022/08/06 10:56:05;;;;;;;1.42;0.40;;;24.30;99.90;;;;;;5079878;28;20064;-62
2022/08/06 10:58:33;;;;;;;1.30;0.30;;;24.00;99.90;;;;;;5080372;28;20052;-59
2022/08/06 11:01:01;;;;;;;1.90;0.40;;;24.20;99.90;;;;;;5079717;28;20446;-60
2022/08/06 11:03:55;;;;;;;0.90;0.30;;;24.80;99.90;;;;;;5080501;28;20036;-61
2022/08/06 11:06:58;;;;;;;2.58;0.38;;;25.70;99.90;;;;;;5080629;28;20033;-60
2022/08/06 11:09:49;;;;;;;3.67;0.45;;;25.60;98.50;;;;;;5080126;28;20024;-60
2022/08/06 11:12:42;;;;;;;1.80;0.55;;;27.30;97.70;;;;;;5079703;28;20024;-60
2022/08/06 11:15:08;;;;;;;1.38;0.43;;;28.60;93.00;;;;;;5079260;28;20044;-61
2022/08/06 11:17:49;;;;;;;1.42;0.40;;;29.50;91.30;;;;;;5080141;28;20020;-58
2022/08/06 11:20:33;;;;;;;0.43;0.38;;;31.00;83.20;;;;;;5079120;28;20044;-60
2022/08/06 11:23:19;;;;;;;1.05;0.40;;;30.40;77.90;;;;;;5080683;28;20024;-60
2022/08/06 11:25:52;;;;;;;2.80;0.50;;;29.80;77.00;;;;;;5079653;28;20045;-59
2022/08/06 11:28:33;;;;;;;0.90;0.50;;;29.40;77.20;;;;;;5079903;28;20052;-59
2022/08/06 11:31:01;;;;;;;2.17;0.75;;;28.10;81.10;;;;;;5079759;28;20082;-60
2022/08/06 11:33:33;;;;;;;2.08;0.50;;;27.80;81.60;;;;;;5079914;28;20090;-59
2022/08/06 11:36:25;;;;;;;1.50;0.60;;;27.80;82.00;;;;;;5079861;28;20032;-60
2022/08/06 11:38:54;;;;;;;;;;;28.80;80.00;;;;;;5080013;28;20322;-60
2022/08/06 11:41:28;;;;;;;1.67;0.40;;;30.70;72.70;;;;;;5079677;28;20029;-59
2022/08/06 11:43:53;;;;;;;4.38;0.60;;;31.60;67.20;;;;;;5079935;28;20043;-59
2022/08/06 11:46:29;;;;;;;0.57;0.40;;;30.80;65.60;;;;;;5062144;28;20025;-59
2022/08/06 11:49:04;;;;;;;2.40;0.45;;;29.80;70.00;;;;;;5079359;28;20024;-59
2022/08/06 11:51:36;;;;;;;1.65;0.45;;;30.20;70.10;;;;;;5079432;28;20032;-58
2022/08/06 11:54:30;;;;;;;2.33;0.60;;;29.40;69.00;;;;;;5079765;28;20028;-59
2022/08/06 11:57:04;;;;;;;1.80;0.55;;;28.80;69.60;;;;;;5078276;28;20049;-59
2022/08/06 11:59:47;;;;;;;1.42;0.52;;;27.80;71.10;;;;;;5079486;28;20055;-58
2022/08/06 12:02:38;;;;;;;1.15;0.50;;;29.50;66.20;;;;;;5078424;28;20064;-59
2022/08/06 12:05:04;;;;;;;2.05;0.60;;;31.00;64.80;;;;;;5078801;28;20040;-60
2022/08/06 12:07:36;;;;;;;3.17;0.70;;;31.20;61.80;;;;;;5079056;28;20024;-60
2022/08/06 12:10:05;;;;;;;1.52;0.50;;;31.10;62.90;;;;;;5078392;28;20029;-59
2022/08/06 12:12:38;;;;;;;2.55;0.50;;;31.00;61.70;;;;;;5079017;28;20407;-60
2022/08/06 12:15:13;;;;;;;1.40;0.60;;;31.30;61.80;;;;;;5078972;28;20317;-60
2022/08/06 12:18:00;;;;;;;1.27;0.50;;;33.70;59.10;;;;;;5078147;28;20093;-60
2022/08/06 12:20:34;;;;;;;0.70;0.50;;;35.90;55.10;;;;;;5078976;28;20116;-59
2022/08/06 12:23:03;;;;;;;1.00;0.70;;;36.70;49.90;;;;;;5078844;28;20028;-60
2022/08/06 12:25:32;;;;;;;0.77;0.55;;;34.50;50.00;;;;;;5078040;28;20131;-59
2022/08/06 12:27:59;;;;;;;1.55;0.60;;;34.00;51.30;;;;;;5078751;28;20029;-59
2022/08/06 12:30:25;;;;;;;1.92;0.60;;;35.30;50.50;;;;;;5078782;28;20028;-59
2022/08/06 12:33:00;;;;;;;1.58;0.50;;;36.80;49.20;;;;;;5079121;28;20025;-62
2022/08/06 12:35:26;;;;;;;0.57;0.50;;;36.10;47.80;;;;;;5079034;28;20060;-60
2022/08/06 12:37:52;;;;;;;0.93;0.77;;;35.30;45.90;;;;;;5078565;28;20063;-60
2022/08/06 12:40:28;;;;;;;1.38;0.90;;;33.60;47.20;;;;;;5078472;28;20098;-59
2022/08/06 12:43:01;;;;;;;2.20;0.90;;;32.10;49.70;;;;;;5078511;28;20028;-59
2022/08/06 12:45:31;;;;;;;1.92;1.10;;;30.20;51.90;;;;;;5078497;28;20029;-58
2022/08/06 12:48:11;;;;;;;2.10;1.15;;;29.00;54.60;;;;;;5078460;28;20024;-58
2022/08/06 12:50:42;;;;;;;2.67;0.82;;;28.80;55.60;;;;;;5078373;28;20039;-59
2022/08/06 12:53:13;;;;;;;1.77;0.80;;;30.60;53.10;;;;;;5078211;28;20093;-59
2022/08/06 12:55:48;;;;;;;1.73;0.90;;;32.30;49.80;;;;;;5077488;28;20427;-59
2022/08/06 12:58:17;;;;;;;1.70;0.98;;;33.90;47.80;;;;;;5078279;28;20120;-59
2022/08/06 13:00:47;;;;;;;2.22;0.93;;;36.10;46.90;;;;;;5077525;28;20032;-60
2022/08/06 13:03:13;;;;;;;2.17;0.80;;;37.30;44.60;;;;;;5077465;28;20418;-60
2022/08/06 13:05:42;;;;;;;3.50;0.70;;;34.20;46.70;;;;;;5078056;28;20028;-59
2022/08/06 13:08:09;;;;;;;3.20;0.88;;;33.60;48.20;;;;;;5078172;28;20028;-59
2022/08/06 13:10:34;;;;;;;1.65;0.70;;;33.00;49.00;;;;;;5077897;28;20036;-59